Azle, Texas
Current Conditions -  °F | °C
As of 1:52 AM on Friday 24 Oct 2014 (Local Time) from KNFW Reporting Station
Overcast Overcast  
Wind Chill: 71°   Ceiling: 6000
Heat Index: 71°   Visibility: 10mi
Dew Point: 55°   Wind: 3mph
Humidity: 57%   Direction: 120°ESE
Pressure: 30.15"   Gusts: NA
Location:  32.88°N, 97.54°W
Report Text: KNFW 240652Z AUTO 12003KT 10SM OVC060 22/13 A3015 RMK AO2 SLP193 T02170128 CHINO N VISNO N $
Loading
Personal Weather Stations






























Interactive Weather Map New forecast layout! Learn more

10-Day Weather Forecast

Advertisements
Track Severe Weather on mobile